Time;durP1;ratioP1;P1;durP2;ratioP2;P2;SDS_P1;SDS_P2;PMS_P1;PMS_P2;Temp;Humidity;BMP_temperature;BMP_pressure;BME280_temperature;BME280_humidity;BME280_pressure;Samples;Min_cycle;Max_cycle;Signal;HPM_P1;HPM_P2
2022/08/15 00:00:52;;;;;;;12.13;5.60;;;;;;;17.12;nan;-24294.19;4955135;29;20182;-62
2022/08/15 00:03:29;;;;;;;7.43;5.25;;;;;;;17.20;nan;-24296.28;4954562;29;20200;-61
2022/08/15 00:05:56;;;;;;;9.27;5.05;;;;;;;16.96;nan;-24289.72;4954747;29;20190;-62
2022/08/15 00:08:23;;;;;;;7.43;4.38;;;;;;;17.10;nan;-24293.50;4954789;29;20190;-61
2022/08/15 00:10:49;;;;;;;11.43;5.63;;;;;;;17.41;nan;-24302.00;4955125;29;20216;-61
2022/08/15 00:13:22;;;;;;;7.97;4.57;;;;;;;17.44;nan;-24303.00;4954860;29;20193;-62
2022/08/15 00:15:50;;;;;;;8.40;4.70;;;;;;;17.09;nan;-24293.22;4953151;29;20719;-61
2022/08/15 00:18:16;;;;;;;15.20;5.43;;;;;;;17.11;nan;-24293.91;4954987;29;20197;-62
2022/08/15 00:20:43;;;;;;;9.52;5.45;;;;;;;17.40;nan;-24301.88;4946826;29;20190;-61
2022/08/15 00:23:10;;;;;;;12.13;5.88;;;;;;;17.02;nan;-24291.25;4953415;29;20815;-61
2022/08/15 00:25:37;;;;;;;8.25;5.07;;;;;;;17.01;nan;-24291.00;4955333;29;20200;-61
2022/08/15 00:28:05;;;;;;;8.60;4.70;;;;;;;17.29;nan;-24298.81;4955359;29;20221;-61
2022/08/15 00:30:33;;;;;;;9.07;5.28;;;;;;;17.29;nan;-24298.81;4954575;29;20190;-62
2022/08/15 00:32:58;;;;;;;9.18;5.15;;;;;;;16.84;nan;-24286.22;4955064;29;20610;-62
2022/08/15 00:35:37;;;;;;;11.68;5.57;;;;;;;17.35;nan;-24300.34;4954852;29;20205;-62
2022/08/15 00:38:04;;;;;;;7.90;4.43;;;;;;;17.50;nan;-24304.53;4955411;29;20284;-61
2022/08/15 00:41:38;;;;;;;8.98;5.55;;;;;;;17.12;nan;-24294.06;4954736;28;20716;-62
2022/08/15 00:43:16;;;;;;;8.73;4.95;;;;;;;17.37;nan;-24301.03;4954967;28;20197;-62
2022/08/15 00:45:42;;;;;;;8.93;4.85;;;;;;;17.34;nan;-24300.19;4953989;29;20186;-61
2022/08/15 00:50:52;;;;;;;8.15;5.20;;;;;;;16.96;nan;-24289.59;4947425;29;20611;-61
2022/08/15 00:53:17;;;;;;;8.95;5.43;;;;;;;17.21;nan;-24296.56;4937742;29;20194;-61
2022/08/15 00:55:45;;;;;;;10.88;5.72;;;;;;;16.94;nan;-24289.16;4954317;29;20216;-61
2022/08/15 00:58:10;;;;;;;8.65;4.60;;;;;;;17.27;nan;-24298.09;4953484;29;20542;-61
2022/08/15 01:00:47;;;;;;;8.48;5.10;;;;;;;16.93;nan;-24288.88;4953978;29;20192;-61
2022/08/15 01:03:24;;;;;;;9.90;4.80;;;;;;;17.10;nan;-24293.50;4953535;29;20394;-62
2022/08/15 01:05:53;;;;;;;9.77;4.88;;;;;;;16.95;nan;-24289.31;4953702;29;20174;-61
2022/08/15 01:08:22;;;;;;;9.05;5.25;;;;;;;16.91;nan;-24288.19;4953862;29;20182;-61
2022/08/15 01:10:48;;;;;;;13.32;5.22;;;;;;;17.37;nan;-24301.03;4937949;29;21662;-61
2022/08/15 01:13:14;;;;;;;9.02;5.10;;;;;;;17.29;nan;-24298.81;4953553;29;20230;-62
2022/08/15 01:15:39;;;;;;;9.48;4.95;;;;;;;17.28;nan;-24298.38;4952438;29;20312;-61
2022/08/15 01:18:05;;;;;;;9.13;4.78;;;;;;;17.21;nan;-24296.72;4952934;28;20178;-63
2022/08/15 01:20:34;;;;;;;8.38;5.10;;;;;;;17.18;nan;-24295.72;4953767;29;20248;-63
2022/08/15 01:23:14;;;;;;;8.68;5.20;;;;;;;17.30;nan;-24298.94;4954826;29;20240;-64
2022/08/15 01:26:06;;;;;;;10.80;4.95;;;;;;;16.87;nan;-24287.22;4952370;29;20200;-63
2022/08/15 01:28:41;;;;;;;8.27;4.47;;;;;;;16.87;nan;-24287.22;4952779;29;20280;-63
2022/08/15 01:31:11;;;;;;;8.60;4.63;;;;;;;16.95;nan;-24289.31;4953230;29;20177;-64
2022/08/15 01:33:42;;;;;;;10.65;5.43;;;;;;;16.91;nan;-24288.34;4954527;29;20181;-63
2022/08/15 01:36:10;;;;;;;9.13;4.63;;;;;;;17.10;nan;-24293.63;4952972;29;20260;-64
2022/08/15 01:38:47;;;;;;;8.30;4.55;;;;;;;16.76;nan;-24284.13;4952842;29;20196;-63
2022/08/15 01:41:41;;;;;;;9.40;5.13;;;;;;;16.66;nan;-24281.50;4953434;29;20571;-63
2022/08/15 01:44:39;;;;;;;7.68;4.32;;;;;;;17.10;nan;-24293.50;4948879;29;20237;-64
2022/08/15 01:47:14;;;;;;;9.98;5.32;;;;;;;16.76;nan;-24284.13;4905104;29;20209;-63
2022/08/15 01:49:50;;;;;;;9.50;5.10;;;;;;;17.01;nan;-24291.00;4952258;29;20651;-63
2022/08/15 01:52:19;;;;;;;9.45;5.18;;;;;;;16.70;nan;-24282.47;4949681;29;20181;-64
2022/08/15 01:54:46;;;;;;;9.80;4.90;;;;;;;17.02;nan;-24291.41;4952393;29;20178;-64
2022/08/15 01:57:11;;;;;;;12.68;5.35;;;;;;;16.67;nan;-24281.78;4952780;29;20182;-64
2022/08/15 01:59:38;;;;;;;7.50;5.00;;;;;;;16.69;nan;-24282.31;4953082;29;20253;-64
2022/08/15 02:02:10;;;;;;;9.05;5.07;;;;;;;16.87;nan;-24287.06;4953357;29;20229;-63
2022/08/15 02:04:39;;;;;;;9.82;5.28;;;;;;;16.73;nan;-24283.31;4952712;29;20182;-63
2022/08/15 02:07:08;;;;;;;8.90;4.65;;;;;;;17.22;nan;-24297.00;4952521;29;20190;-63
2022/08/15 02:09:35;;;;;;;8.20;4.88;;;;;;;17.25;nan;-24297.69;4951935;29;20190;-63
2022/08/15 02:12:05;;;;;;;11.05;5.18;;;;;;;17.20;nan;-24296.28;4953762;29;20225;-63
2022/08/15 02:14:33;;;;;;;9.63;5.18;;;;;;;16.81;nan;-24285.41;4952743;29;20193;-63
2022/08/15 02:16:59;;;;;;;10.30;5.00;;;;;;;16.67;nan;-24281.78;4952434;29;20288;-63
2022/08/15 02:19:25;;;;;;;9.75;4.72;;;;;;;16.95;nan;-24289.44;4952853;29;20185;-63
2022/08/15 02:21:50;;;;;;;9.25;5.20;;;;;;;17.11;nan;-24293.91;4952922;29;20182;-63
2022/08/15 02:24:22;;;;;;;12.05;4.90;;;;;;;16.73;nan;-24283.31;4952211;29;20182;-64
2022/08/15 02:26:49;;;;;;;8.60;4.90;;;;;;;16.60;nan;-24279.81;4945949;29;20649;-63
2022/08/15 02:29:14;;;;;;;8.23;5.35;;;;;;;16.77;nan;-24284.56;4934656;29;20189;-64
2022/08/15 02:31:40;;;;;;;10.02;5.35;;;;;;;17.05;nan;-24292.09;4952772;29;20186;-63
2022/08/15 02:34:06;;;;;;;10.35;5.72;;;;;;;16.84;nan;-24286.38;4952811;29;20600;-64
2022/08/15 02:36:35;;;;;;;9.07;5.20;;;;;;;17.01;nan;-24291.00;4952088;29;21000;-63
2022/08/15 02:39:03;;;;;;;11.27;5.57;;;;;;;16.50;nan;-24276.88;4953294;29;20185;-63
2022/08/15 02:41:33;;;;;;;10.38;5.32;;;;;;;16.84;nan;-24286.22;4952494;29;20236;-64
2022/08/15 02:44:01;;;;;;;10.20;5.68;;;;;;;16.84;nan;-24286.22;4952255;29;20178;-63
2022/08/15 02:46:29;;;;;;;9.68;5.38;;;;;;;16.34;nan;-24272.69;4952680;29;20641;-63
2022/08/15 02:48:57;;;;;;;9.80;5.38;;;;;;;16.41;nan;-24274.34;4950643;29;20186;-64
2022/08/15 02:51:23;;;;;;;8.85;5.15;;;;;;;16.36;nan;-24273.09;4952732;29;20178;-66
2022/08/15 02:53:50;;;;;;;7.85;4.43;;;;;;;16.81;nan;-24285.41;4953019;29;20182;-66
2022/08/15 02:56:20;;;;;;;9.38;5.47;;;;;;;16.91;nan;-24288.19;4951526;29;20198;-63
2022/08/15 02:58:46;;;;;;;11.30;6.03;;;;;;;16.81;nan;-24285.41;4951154;29;20273;-63
2022/08/15 03:01:12;;;;;;;9.23;5.80;;;;;;;16.41;nan;-24274.34;4952153;29;20205;-63
2022/08/15 03:03:42;;;;;;;11.32;5.25;;;;;;;16.49;nan;-24276.59;4954772;28;20193;-64
2022/08/15 03:06:12;;;;;;;12.75;5.72;;;;;;;16.92;nan;-24288.47;4956061;29;20229;-64
2022/08/15 03:08:40;;;;;;;7.63;5.32;;;;;;;16.93;nan;-24288.75;4955954;29;20178;-63
2022/08/15 03:11:07;;;;;;;10.05;5.90;;;;;;;16.96;nan;-24289.72;4955743;29;20178;-64
2022/08/15 03:13:33;;;;;;;11.38;5.25;;;;;;;16.48;nan;-24276.44;4955099;29;20186;-64
2022/08/15 03:16:00;;;;;;;8.52;5.22;;;;;;;16.92;nan;-24288.47;4955808;29;20293;-63
2022/08/15 03:18:29;;;;;;;12.80;4.80;;;;;;;16.58;nan;-24279.25;4954025;29;20217;-63
2022/08/15 03:20:56;;;;;;;10.35;5.35;;;;;;;16.80;nan;-24285.25;4953386;29;20269;-64
2022/08/15 03:23:25;;;;;;;9.85;5.40;;;;;;;16.31;nan;-24271.69;4956149;29;20184;-67
2022/08/15 03:25:53;;;;;;;8.02;5.20;;;;;;;16.31;nan;-24271.84;4956132;29;20194;-66
2022/08/15 03:28:23;;;;;;;14.70;5.07;;;;;;;16.66;nan;-24281.50;4955075;29;20205;-66
2022/08/15 03:30:49;;;;;;;11.95;5.45;;;;;;;16.31;nan;-24271.69;4955435;29;20182;-66
2022/08/15 03:33:15;;;;;;;11.15;5.22;;;;;;;16.54;nan;-24278.13;4955731;29;20240;-66
2022/08/15 03:35:47;;;;;;;10.05;5.18;;;;;;;16.92;nan;-24288.63;4951329;29;20205;-63
2022/08/15 03:38:13;;;;;;;10.68;5.35;;;;;;;17.14;nan;-24294.63;4949205;29;20656;-66
2022/08/15 03:40:40;;;;;;;11.02;5.40;;;;;;;17.04;nan;-24291.81;4949735;29;20201;-65
2022/08/15 03:43:08;;;;;;;9.68;4.28;;;;;;;17.19;nan;-24296.00;4948950;29;20178;-66
2022/08/15 03:45:33;;;;;;;10.43;5.90;;;;;;;17.53;nan;-24305.34;4949968;29;20190;-65
2022/08/15 03:48:01;;;;;;;11.98;5.55;;;;;;;18.32;nan;-24327.13;4949841;29;20178;-66
2022/08/15 03:50:28;;;;;;;9.60;5.10;;;;;;;18.96;nan;-24344.81;4949331;29;20193;-65
2022/08/15 03:52:58;;;;;;;10.35;5.35;;;;;;;19.57;nan;-24361.66;4950406;29;20198;-65
2022/08/15 03:55:27;;;;;;;9.65;5.03;;;;;;;19.83;nan;-24368.72;4947874;29;20603;-65
2022/08/15 03:57:53;;;;;;;7.63;4.55;;;;;;;20.65;nan;-24391.22;4949642;29;20265;-65
2022/08/15 04:00:29;;;;;;;8.60;5.07;;;;;;;21.02;nan;-24401.34;4949267;29;20534;-65
2022/08/15 04:03:10;;;;;;;9.07;4.68;;;;;;;21.66;nan;-24418.97;4949961;29;20217;-65
2022/08/15 04:05:36;;;;;;;9.38;4.95;;;;;;;21.98;nan;-24427.69;4949152;29;20186;-64
2022/08/15 04:08:05;;;;;;;7.90;4.75;;;;;;;22.19;nan;-24433.38;4948956;29;20587;-65
2022/08/15 04:10:31;;;;;;;10.50;5.00;;;;;;;22.52;nan;-24442.50;4947741;29;20276;-64
2022/08/15 04:12:57;;;;;;;8.82;5.15;;;;;;;22.78;nan;-24449.69;4948975;29;20252;-64
2022/08/15 04:15:23;;;;;;;8.40;4.22;;;;;;;23.46;nan;-24468.06;4949552;28;20241;-65
2022/08/15 04:17:48;;;;;;;9.57;4.50;;;;;;;23.37;nan;-24465.72;4954043;29;20182;-64
2022/08/15 04:20:14;;;;;;;8.05;4.78;;;;;;;23.89;nan;-24479.94;4954576;29;20185;-64
2022/08/15 04:22:43;;;;;;;8.32;4.97;;;;;;;24.09;nan;-24485.31;4953493;29;20256;-64
2022/08/15 04:25:14;;;;;;;6.65;4.30;;;;;;;24.22;nan;-24488.91;4954888;29;20197;-64
2022/08/15 04:27:40;;;;;;;9.80;4.80;;;;;;;24.44;nan;-24494.97;4955156;29;20276;-65
2022/08/15 04:30:07;;;;;;;9.25;5.25;;;;;;;24.64;nan;-24500.50;4955860;29;20196;-64
2022/08/15 04:32:33;;;;;;;8.93;4.72;;;;;;;24.95;nan;-24508.75;4955847;29;20193;-64
2022/08/15 04:34:59;;;;;;;10.63;4.63;;;;;;;25.11;nan;-24513.03;4954635;29;20185;-64
2022/08/15 04:37:25;;;;;;;7.82;4.18;;;;;;;25.23;nan;-24516.34;4954049;29;20273;-64
2022/08/15 04:39:51;;;;;;;8.32;4.47;;;;;;;25.25;nan;-24516.88;4954330;29;20274;-64
2022/08/15 04:42:21;;;;;;;7.43;4.45;;;;;;;25.27;nan;-24517.44;4953548;29;20235;-64
2022/08/15 04:44:48;;;;;;;8.15;4.65;;;;;;;25.11;nan;-24513.16;4948777;28;20681;-64
2022/08/15 04:47:14;;;;;;;7.78;4.60;;;;;;;24.94;nan;-24508.47;4953562;29;20225;-64
2022/08/15 04:49:40;;;;;;;8.15;4.65;;;;;;;24.84;nan;-24505.72;4953828;29;20178;-64
2022/08/15 04:52:09;;;;;;;7.00;4.20;;;;;;;24.94;nan;-24508.47;4953322;29;20218;-62
2022/08/15 04:54:35;;;;;;;6.85;4.32;;;;;;;24.42;nan;-24494.44;4935791;29;20260;-62
2022/08/15 04:57:01;;;;;;;6.80;4.40;;;;;;;24.26;nan;-24489.88;4952723;29;20210;-64
2022/08/15 04:59:26;;;;;;;8.50;4.65;;;;;;;23.77;nan;-24476.63;4953276;29;20196;-62
2022/08/15 05:01:52;;;;;;;7.28;4.72;;;;;;;23.62;nan;-24472.50;4953377;29;20189;-61
2022/08/15 05:04:17;;;;;;;10.13;5.03;;;;;;;23.82;nan;-24477.88;4952170;29;20193;-61
2022/08/15 05:06:43;;;;;;;8.77;4.80;;;;;;;23.35;nan;-24465.19;4953948;29;20170;-62
2022/08/15 05:09:08;;;;;;;8.43;4.70;;;;;;;23.40;nan;-24466.41;4954021;29;20190;-62
2022/08/15 05:11:33;;;;;;;7.80;4.82;;;;;;;23.04;nan;-24456.75;4954343;29;20186;-63
2022/08/15 05:13:59;;;;;;;7.05;4.32;;;;;;;22.80;nan;-24450.09;4954152;28;20193;-63
2022/08/15 05:16:25;;;;;;;8.25;4.57;;;;;;;22.24;nan;-24434.75;4953446;29;20226;-63
2022/08/15 05:18:50;;;;;;;7.13;4.25;;;;;;;22.16;nan;-24432.69;4953308;29;20186;-62
2022/08/15 05:21:16;;;;;;;6.30;3.83;;;;;;;22.14;nan;-24432.00;4954149;29;20677;-62
2022/08/15 05:23:42;;;;;;;5.80;3.90;;;;;;;21.77;nan;-24421.88;4954110;29;20218;-62
2022/08/15 05:26:09;;;;;;;8.40;4.75;;;;;;;21.92;nan;-24426.03;4936541;29;20194;-63
2022/08/15 05:28:35;;;;;;;6.38;3.88;;;;;;;21.95;nan;-24426.88;4953959;29;20200;-60
2022/08/15 05:31:03;;;;;;;6.75;4.25;;;;;;;21.88;nan;-24425.06;4953974;29;20174;-60
2022/08/15 05:33:30;;;;;;;8.45;4.40;;;;;;;21.50;nan;-24414.53;4953406;29;20165;-60
2022/08/15 05:35:59;;;;;;;7.35;4.65;;;;;;;21.68;nan;-24419.53;4968514;28;20210;-61
2022/08/15 05:38:32;;;;;;;9.35;4.82;;;;;;;21.51;nan;-24414.81;4953759;28;20186;-61
2022/08/15 05:41:07;;;;;;;7.55;4.35;;;;;;;21.56;nan;-24416.34;4953664;29;20213;-64
2022/08/15 05:43:47;;;;;;;8.93;5.20;;;;;;;21.47;nan;-24413.69;4954153;29;20169;-61
2022/08/15 05:46:42;;;;;;;8.20;4.50;;;;;;;21.34;nan;-24410.09;4954336;29;20178;-61
2022/08/15 05:49:17;;;;;;;7.55;4.80;;;;;;;21.47;nan;-24413.84;4927259;29;20186;-62
2022/08/15 05:51:52;;;;;;;6.93;4.35;;;;;;;21.84;nan;-24423.81;4954300;29;20174;-60
2022/08/15 05:54:42;;;;;;;7.15;4.53;;;;;;;21.91;nan;-24425.91;4954064;29;20170;-61
2022/08/15 05:57:11;;;;;;;6.88;4.57;;;;;;;22.13;nan;-24431.72;4953538;29;20209;-62
2022/08/15 05:59:45;;;;;;;7.93;4.25;;;;;;;21.94;nan;-24426.59;4953883;29;20257;-62
2022/08/15 06:02:21;;;;;;;6.72;4.15;;;;;;;22.09;nan;-24430.59;4953882;29;20161;-62
2022/08/15 06:04:59;;;;;;;5.93;4.03;;;;;;;22.60;nan;-24444.56;4953678;29;20162;-62
2022/08/15 06:07:26;;;;;;;7.60;4.30;;;;;;;22.57;nan;-24443.88;4954160;29;20181;-61
2022/08/15 06:09:58;;;;;;;7.72;4.38;;;;;;;22.55;nan;-24443.34;4954329;29;20201;-62
2022/08/15 06:12:26;;;;;;;5.88;3.72;;;;;;;22.72;nan;-24448.03;4953880;29;20186;-62
2022/08/15 06:14:59;;;;;;;4.95;3.60;;;;;;;22.38;nan;-24438.75;4953983;29;20649;-62
2022/08/15 06:17:41;;;;;;;5.90;3.50;;;;;;;22.58;nan;-24444.03;4953753;29;20159;-62
2022/08/15 06:20:09;;;;;;;5.55;3.33;;;;;;;22.52;nan;-24442.50;4953549;29;20220;-62
2022/08/15 06:22:41;;;;;;;6.97;3.92;;;;;;;22.70;nan;-24447.34;4953284;29;20575;-62
2022/08/15 06:25:18;;;;;;;7.45;3.30;;;;;;;22.58;nan;-24444.03;4953891;29;20178;-62
2022/08/15 06:28:01;;;;;;;5.57;3.65;;;;;;;22.59;nan;-24444.44;4953905;29;20174;-62
2022/08/15 06:30:43;;;;;;;5.38;3.42;;;;;;;22.75;nan;-24448.88;4953947;29;20670;-61
2022/08/15 06:33:27;;;;;;;4.97;3.42;;;;;;;22.66;nan;-24446.38;4953716;29;20177;-62
2022/08/15 06:36:22;;;;;;;5.85;3.20;;;;;;;22.64;nan;-24445.69;4953757;29;20665;-62
2022/08/15 06:39:01;;;;;;;7.25;3.63;;;;;;;22.58;nan;-24444.03;4956012;29;20193;-62
2022/08/15 06:41:43;;;;;;;5.30;3.50;;;;;;;22.90;nan;-24452.88;4957550;29;20253;-62
2022/08/15 06:44:10;;;;;;;6.90;3.70;;;;;;;23.25;nan;-24462.56;4957324;29;20689;-62
2022/08/15 06:46:38;;;;;;;5.35;3.38;;;;;;;22.93;nan;-24453.72;4957607;29;20186;-62
2022/08/15 06:49:10;;;;;;;4.22;2.97;;;;;;;23.21;nan;-24461.31;4956848;29;20264;-62
2022/08/15 06:51:38;;;;;;;6.25;3.55;;;;;;;23.29;nan;-24463.50;4958118;29;20272;-62
2022/08/15 06:54:06;;;;;;;5.82;3.88;;;;;;;23.52;nan;-24469.72;4938131;29;20265;-62
2022/08/15 06:56:39;;;;;;;5.95;3.45;;;;;;;23.63;nan;-24472.78;4943129;29;20272;-63
2022/08/15 06:59:23;;;;;;;3.92;2.60;;;;;;;23.66;nan;-24473.75;4957429;29;20613;-62
2022/08/15 07:01:58;;;;;;;5.35;3.38;;;;;;;23.61;nan;-24472.22;4957274;29;20272;-62
2022/08/15 07:04:36;;;;;;;5.40;3.25;;;;;;;23.62;nan;-24472.50;4957327;29;20166;-62
2022/08/15 07:07:43;;;;;;;7.00;3.17;;;;;;;23.85;nan;-24478.84;4957256;29;20300;-62
2022/08/15 07:10:27;;;;;;;4.97;3.20;;;;;;;23.99;nan;-24482.56;4956609;29;20190;-62
2022/08/15 07:13:19;;;;;;;4.40;3.03;;;;;;;24.01;nan;-24483.25;4957644;29;20275;-62
2022/08/15 07:16:02;;;;;;;4.30;3.03;;;;;;;24.32;nan;-24491.53;4956816;29;20324;-62
2022/08/15 07:18:28;;;;;;;4.38;2.67;;;;;;;24.25;nan;-24489.59;4956661;29;20580;-62
2022/08/15 07:21:05;;;;;;;5.70;3.50;;;;;;;23.82;nan;-24477.88;4957249;29;20178;-62
2022/08/15 07:23:31;;;;;;;6.03;3.17;;;;;;;24.16;nan;-24487.25;4956727;29;20177;-62
2022/08/15 07:26:07;;;;;;;4.50;3.30;;;;;;;24.29;nan;-24490.72;4956557;29;20209;-62
2022/08/15 07:28:35;;;;;;;7.63;3.20;;;;;;;24.43;nan;-24494.56;4956676;29;20166;-62
2022/08/15 07:31:15;;;;;;;7.43;4.10;;;;;;;24.24;nan;-24489.47;4956852;29;20232;-62
2022/08/15 07:33:42;;;;;;;8.82;5.30;;;;;;;24.51;nan;-24496.78;4956942;29;20174;-62
2022/08/15 07:36:33;;;;;;;5.10;3.35;;;;;;;24.09;nan;-24485.47;4957054;29;20384;-62
2022/08/15 07:38:59;;;;;;;6.43;4.00;;;;;;;24.26;nan;-24490.03;4957120;29;20174;-62
2022/08/15 07:41:38;;;;;;;7.88;4.53;;;;;;;24.67;nan;-24501.03;4956365;28;20213;-62
2022/08/15 07:44:26;;;;;;;9.05;5.57;;;;;;;24.69;nan;-24501.59;4956432;29;20193;-62
2022/08/15 07:46:56;;;;;;;7.07;4.50;;;;;;;24.71;nan;-24502.16;4956081;29;20174;-61
2022/08/15 07:49:31;;;;;;;7.85;4.60;;;;;;;25.07;nan;-24512.19;4955076;28;20174;-60
2022/08/15 07:52:20;;;;;;;7.10;3.90;;;;;;;25.40;nan;-24521.16;4955480;28;20186;-63
2022/08/15 07:54:49;;;;;;;6.88;4.20;;;;;;;25.62;nan;-24527.06;4956233;29;20162;-60
2022/08/15 07:57:33;;;;;;;5.72;3.72;;;;;;;26.15;nan;-24541.50;4956137;29;20545;-62
2022/08/15 08:00:05;;;;;;;5.80;3.70;;;;;;;26.22;nan;-24543.41;4956116;29;20174;-61
2022/08/15 08:02:40;;;;;;;7.78;4.38;;;;;;;26.24;nan;-24543.84;4954112;28;20186;-60
2022/08/15 08:05:06;;;;;;;7.85;4.38;;;;;;;26.34;nan;-24546.59;4936075;29;20199;-60
2022/08/15 08:07:36;;;;;;;9.20;4.57;;;;;;;26.18;nan;-24542.31;4935941;29;20177;-61
2022/08/15 08:10:11;;;;;;;8.35;4.68;;;;;;;26.23;nan;-24543.56;4936431;29;20183;-61
2022/08/15 08:12:48;;;;;;;7.80;4.50;;;;;;;26.68;nan;-24555.78;4936917;29;20182;-60
2022/08/15 08:15:29;;;;;;;9.45;5.38;;;;;;;27.05;nan;-24565.94;4935910;29;20226;-60
2022/08/15 08:18:04;;;;;;;8.52;4.32;;;;;;;27.19;nan;-24569.78;4953690;29;20178;-61
2022/08/15 08:20:51;;;;;;;8.02;4.35;;;;;;;27.54;nan;-24579.25;4954237;29;20181;-62
2022/08/15 08:23:30;;;;;;;6.85;4.07;;;;;;;27.11;nan;-24567.44;4954671;29;20216;-62
2022/08/15 08:26:01;;;;;;;8.27;3.90;;;;;;;27.85;nan;-24587.44;4954763;29;20236;-61
2022/08/15 08:28:49;;;;;;;6.47;4.00;;;;;;;28.03;nan;-24592.38;4954770;29;20185;-62
2022/08/15 08:31:43;;;;;;;6.07;4.20;;;;;;;28.31;nan;-24599.91;4954747;29;20178;-61
2022/08/15 08:34:27;;;;;;;6.03;3.97;;;;;;;28.16;nan;-24595.94;4954962;29;20174;-62
2022/08/15 08:37:33;;;;;;;7.30;4.05;;;;;;;27.83;nan;-24586.91;4954918;29;20573;-62
2022/08/15 08:43:28;;;;;;;6.60;4.00;;;;;;;27.64;nan;-24581.84;4955517;29;20185;-61
2022/08/15 08:46:00;;;;;;;7.03;4.15;;;;;;;27.88;nan;-24588.41;4955761;29;20329;-61
2022/08/15 08:48:58;;;;;;;5.78;3.55;;;;;;;27.98;nan;-24591.00;4955298;29;20169;-61
2022/08/15 08:52:02;;;;;;;7.88;4.18;;;;;;;27.55;nan;-24579.38;4927558;29;20251;-61
2022/08/15 08:54:27;;;;;;;7.53;4.47;;;;;;;27.53;nan;-24578.81;4955242;29;20292;-61
2022/08/15 08:56:55;;;;;;;6.80;4.10;;;;;;;27.26;nan;-24571.56;4954883;29;20301;-61
2022/08/15 08:59:23;;;;;;;9.50;4.20;;;;;;;27.17;nan;-24569.09;4955153;29;20662;-61
2022/08/15 09:02:34;;;;;;;7.82;3.95;;;;;;;26.75;nan;-24557.84;4955339;28;20179;-61
2022/08/15 09:05:09;;;;;;;6.85;4.05;;;;;;;26.62;nan;-24554.13;4954695;29;20217;-61
2022/08/15 09:07:39;;;;;;;7.10;4.40;;;;;;;26.61;nan;-24553.84;4954681;29;20625;-61
2022/08/15 09:10:07;;;;;;;9.07;4.47;;;;;;;26.71;nan;-24556.75;4954703;29;20179;-61
2022/08/15 09:15:27;;;;;;;8.35;4.38;;;;;;;26.85;nan;-24560.31;4954828;28;20684;-61
2022/08/15 09:18:01;;;;;;;6.53;4.20;;;;;;;26.85;nan;-24560.44;4954912;29;20178;-61
2022/08/15 09:20:36;;;;;;;7.35;4.60;;;;;;;27.17;nan;-24569.09;4937008;29;20654;-61
2022/08/15 09:23:12;;;;;;;6.43;4.05;;;;;;;27.04;nan;-24565.53;4954550;29;20612;-61
2022/08/15 09:25:58;;;;;;;7.68;4.25;;;;;;;27.22;nan;-24570.47;4954391;29;20182;-61
2022/08/15 09:28:28;;;;;;;5.95;4.30;;;;;;;27.23;nan;-24570.75;4954738;29;20209;-61
2022/08/15 09:30:55;;;;;;;9.07;4.80;;;;;;;27.17;nan;-24569.09;4954412;29;20212;-60
2022/08/15 09:33:44;;;;;;;7.20;4.10;;;;;;;27.50;nan;-24578.16;4954222;29;20174;-60
2022/08/15 09:36:31;;;;;;;7.22;4.15;;;;;;;27.55;nan;-24579.38;4954710;29;20209;-61
2022/08/15 09:38:59;;;;;;;7.32;4.22;;;;;;;27.63;nan;-24581.56;4954257;29;20162;-62
2022/08/15 09:41:40;;;;;;;8.73;4.72;;;;;;;27.58;nan;-24580.19;4954582;29;20176;-61
2022/08/15 09:44:20;;;;;;;6.60;3.63;;;;;;;27.64;nan;-24581.84;4954842;29;20712;-61
2022/08/15 09:47:01;;;;;;;6.82;4.00;;;;;;;27.68;nan;-24582.94;4954334;29;20193;-60
2022/08/15 09:50:17;;;;;;;8.13;4.47;;;;;;;27.70;nan;-24583.47;4954202;29;20158;-60
2022/08/15 09:53:06;;;;;;;6.75;4.22;;;;;;;27.57;nan;-24579.91;4894850;29;20191;-61
2022/08/15 09:55:34;;;;;;;8.13;4.65;;;;;;;27.37;nan;-24574.56;4950924;29;20217;-61
2022/08/15 09:58:13;;;;;;;8.00;4.93;;;;;;;27.41;nan;-24575.53;4954315;29;20178;-61
2022/08/15 10:01:03;;;;;;;8.32;4.43;;;;;;;27.83;nan;-24586.91;4954655;29;20185;-61
2022/08/15 10:03:43;;;;;;;7.70;4.82;;;;;;;28.14;nan;-24595.25;4953638;29;20174;-61
2022/08/15 10:06:15;;;;;;;7.68;4.28;;;;;;;27.85;nan;-24587.44;4953902;28;20177;-62
2022/08/15 10:08:52;;;;;;;7.45;4.40;;;;;;;28.06;nan;-24593.34;4954401;29;20678;-61
2022/08/15 10:11:46;;;;;;;6.75;4.18;;;;;;;27.95;nan;-24590.34;4953817;28;20179;-61
2022/08/15 10:14:20;;;;;;;6.95;4.18;;;;;;;28.18;nan;-24596.50;4923483;29;20200;-62
2022/08/15 10:16:52;;;;;;;9.65;5.10;;;;;;;28.07;nan;-24593.63;4953204;29;20238;-61
2022/08/15 10:19:38;;;;;;;8.57;4.93;;;;;;;28.06;nan;-24593.34;4954063;29;20181;-61
2022/08/15 10:22:21;;;;;;;7.40;4.53;;;;;;;28.08;nan;-24593.88;4953910;29;20181;-61
2022/08/15 10:25:25;;;;;;;7.63;4.50;;;;;;;28.29;nan;-24599.50;4953644;29;20231;-61
2022/08/15 10:28:11;;;;;;;8.32;4.80;;;;;;;27.59;nan;-24580.47;4953233;28;20173;-61
2022/08/15 10:31:08;;;;;;;10.02;5.25;;;;;;;28.13;nan;-24595.13;4954178;29;20213;-60
2022/08/15 10:33:45;;;;;;;7.95;4.93;;;;;;;28.16;nan;-24595.94;4942166;29;20281;-61
2022/08/15 10:36:13;;;;;;;8.57;4.82;;;;;;;28.31;nan;-24600.06;4953135;29;20322;-60
2022/08/15 10:38:47;;;;;;;7.88;4.93;;;;;;;28.13;nan;-24595.00;4953570;29;20185;-60
2022/08/15 10:41:41;;;;;;;9.88;4.97;;;;;;;28.27;nan;-24598.97;4936125;29;20529;-61
2022/08/15 10:44:42;;;;;;;7.53;4.90;;;;;;;28.33;nan;-24600.59;4953381;29;20188;-61
2022/08/15 10:47:29;;;;;;;6.45;4.43;;;;;;;28.24;nan;-24598.00;4953697;29;20181;-61
2022/08/15 10:50:16;;;;;;;9.55;4.72;;;;;;;28.29;nan;-24599.38;4954587;29;20181;-60
2022/08/15 10:52:47;;;;;;;6.93;4.65;;;;;;;28.49;nan;-24604.97;4953905;29;20656;-61
2022/08/15 10:55:15;;;;;;;8.13;4.68;;;;;;;28.61;nan;-24608.13;4953330;29;20257;-61
2022/08/15 10:57:51;;;;;;;7.57;4.55;;;;;;;28.63;nan;-24608.53;4953338;29;20192;-61
2022/08/15 11:00:50;;;;;;;8.90;4.35;;;;;;;28.62;nan;-24608.41;4953260;29;20625;-61
2022/08/15 11:03:29;;;;;;;6.18;3.80;;;;;;;28.84;nan;-24614.28;4902942;29;20276;-60
2022/08/15 11:06:02;;;;;;;6.20;3.80;;;;;;;28.59;nan;-24607.44;4953477;29;20339;-60
2022/08/15 11:08:28;;;;;;;6.45;4.10;;;;;;;28.92;nan;-24616.59;4953612;29;20268;-61
2022/08/15 11:11:00;;;;;;;6.85;3.83;;;;;;;28.49;nan;-24604.97;4951834;28;20268;-61
2022/08/15 11:13:30;;;;;;;5.38;3.35;;;;;;;28.71;nan;-24610.72;4952937;28;20536;-61
2022/08/15 11:16:06;;;;;;;6.10;4.00;;;;;;;28.95;nan;-24617.28;4952606;28;20320;-61
2022/08/15 11:18:35;;;;;;;7.03;3.83;;;;;;;28.97;nan;-24617.97;4952842;28;20161;-61
2022/08/15 11:21:15;;;;;;;5.40;3.53;;;;;;;28.71;nan;-24610.72;4952944;28;20190;-61
2022/08/15 11:23:42;;;;;;;5.28;3.22;;;;;;;28.66;nan;-24609.50;4953943;28;20674;-61
2022/08/15 11:26:09;;;;;;;6.00;3.42;;;;;;;29.24;nan;-24625.06;4971286;28;20232;-61
2022/08/15 11:28:39;;;;;;;6.57;4.10;;;;;;;29.31;nan;-24627.13;4956299;28;20648;-61
2022/08/15 11:31:15;;;;;;;6.00;3.72;;;;;;;29.07;nan;-24620.56;4956253;28;20189;-61
2022/08/15 11:33:44;;;;;;;5.10;3.50;;;;;;;29.16;nan;-24622.88;4956493;28;20197;-60
2022/08/15 11:36:19;;;;;;;5.90;3.83;;;;;;;28.78;nan;-24612.78;4956307;28;20254;-61
2022/08/15 11:38:49;;;;;;;6.65;3.80;;;;;;;29.04;nan;-24619.75;4956297;28;20180;-61
2022/08/15 11:41:27;;;;;;;8.52;4.57;;;;;;;29.23;nan;-24624.78;4956129;28;20618;-61
2022/08/15 11:43:57;;;;;;;6.47;3.80;;;;;;;29.19;nan;-24623.84;4956587;28;20191;-61
2022/08/15 11:46:24;;;;;;;6.50;3.90;;;;;;;29.69;nan;-24637.34;4955928;28;20209;-61
2022/08/15 11:49:03;;;;;;;6.95;4.10;;;;;;;29.64;nan;-24635.84;4956351;28;20298;-61
2022/08/15 11:51:34;;;;;;;5.65;3.83;;;;;;;29.55;nan;-24633.41;4956520;28;20177;-61
2022/08/15 11:54:06;;;;;;;6.85;3.88;;;;;;;29.94;nan;-24644.03;4955829;28;20650;-61
2022/08/15 11:56:49;;;;;;;6.88;4.28;;;;;;;29.92;nan;-24643.38;4956844;29;20201;-61
2022/08/15 11:59:44;;;;;;;6.05;3.70;;;;;;;29.73;nan;-24638.44;4956546;29;20659;-61
2022/08/15 12:02:28;;;;;;;5.80;3.97;;;;;;;29.72;nan;-24638.03;4953701;29;20208;-61
2022/08/15 12:04:54;;;;;;;5.70;3.65;;;;;;;29.60;nan;-24634.91;4956341;29;20169;-61
2022/08/15 12:07:27;;;;;;;6.70;4.00;;;;;;;29.70;nan;-24637.50;4956039;29;20181;-61
2022/08/15 12:10:06;;;;;;;5.22;3.47;;;;;;;29.73;nan;-24638.44;4955913;29;20166;-61
2022/08/15 12:12:51;;;;;;;6.13;3.95;;;;;;;29.89;nan;-24642.53;4955147;29;20180;-62
2022/08/15 12:15:20;;;;;;;8.80;4.65;;;;;;;29.62;nan;-24635.44;4955375;29;20228;-61
2022/08/15 12:18:11;;;;;;;6.43;4.18;;;;;;;30.04;nan;-24646.78;4955615;29;20181;-61
2022/08/15 12:20:56;;;;;;;7.05;4.18;;;;;;;30.08;nan;-24647.72;4956236;29;20178;-61